sensor_id;sensor_type;location;lat;lon;timestamp;temperature;humidity
71175;DHT22;58876;51.994;4.472;2024-02-04T00:01:32;10.90;90.99
71175;DHT22;58876;51.994;4.472;2024-02-04T00:03:57;10.90;90.82
71175;DHT22;58876;51.994;4.472;2024-02-04T00:06:23;11.04;90.64
71175;DHT22;58876;51.994;4.472;2024-02-04T00:08:48;11.07;90.44
71175;DHT22;58876;51.994;4.472;2024-02-04T00:11:14;11.00;90.49
71175;DHT22;58876;51.994;4.472;2024-02-04T00:13:42;11.01;90.39
71175;DHT22;58876;51.994;4.472;2024-02-04T00:16:08;11.08;90.34
71175;DHT22;58876;51.994;4.472;2024-02-04T00:18:34;11.09;90.26
71175;DHT22;58876;51.994;4.472;2024-02-04T00:20:59;11.11;89.90
71175;DHT22;58876;51.994;4.472;2024-02-04T00:23:24;11.07;90.18
71175;DHT22;58876;51.994;4.472;2024-02-04T00:25:50;11.11;90.02
71175;DHT22;58876;51.994;4.472;2024-02-04T00:28:15;11.19;89.86
71175;DHT22;58876;51.994;4.472;2024-02-04T00:30:41;11.15;89.88
71175;DHT22;58876;51.994;4.472;2024-02-04T00:33:06;11.19;89.69
71175;DHT22;58876;51.994;4.472;2024-02-04T00:35:32;11.23;89.60
71175;DHT22;58876;51.994;4.472;2024-02-04T00:37:57;11.18;89.58
71175;DHT22;58876;51.994;4.472;2024-02-04T00:40:23;11.14;89.56
71175;DHT22;58876;51.994;4.472;2024-02-04T00:42:49;11.08;89.83
71175;DHT22;58876;51.994;4.472;2024-02-04T00:45:14;11.04;90.10
71175;DHT22;58876;51.994;4.472;2024-02-04T00:47:40;11.00;90.02
71175;DHT22;58876;51.994;4.472;2024-02-04T00:50:06;11.04;89.96
71175;DHT22;58876;51.994;4.472;2024-02-04T00:52:31;11.01;90.02
71175;DHT22;58876;51.994;4.472;2024-02-04T00:54:57;11.01;89.90
71175;DHT22;58876;51.994;4.472;2024-02-04T00:57:22;10.95;90.16
71175;DHT22;58876;51.994;4.472;2024-02-04T00:59:48;10.98;90.09
71175;DHT22;58876;51.994;4.472;2024-02-04T01:02:13;10.94;90.10
71175;DHT22;58876;51.994;4.472;2024-02-04T01:04:38;10.88;90.18
71175;DHT22;58876;51.994;4.472;2024-02-04T01:07:04;10.85;90.11
71175;DHT22;58876;51.994;4.472;2024-02-04T01:09:29;10.84;90.13
71175;DHT22;58876;51.994;4.472;2024-02-04T01:11:55;10.72;90.33
71175;DHT22;58876;51.994;4.472;2024-02-04T01:14:21;10.68;90.46
71175;DHT22;58876;51.994;4.472;2024-02-04T01:16:46;10.71;90.31
71175;DHT22;58876;51.994;4.472;2024-02-04T01:19:12;10.81;90.17
71175;DHT22;58876;51.994;4.472;2024-02-04T01:21:37;10.78;89.88
71175;DHT22;58876;51.994;4.472;2024-02-04T01:24:03;10.70;90.04
71175;DHT22;58876;51.994;4.472;2024-02-04T01:26:29;10.74;90.25
71175;DHT22;58876;51.994;4.472;2024-02-04T01:28:54;10.75;90.19
71175;DHT22;58876;51.994;4.472;2024-02-04T01:31:20;10.67;90.07
71175;DHT22;58876;51.994;4.472;2024-02-04T01:33:48;10.67;90.35
71175;DHT22;58876;51.994;4.472;2024-02-04T01:36:13;10.65;90.32
71175;DHT22;58876;51.994;4.472;2024-02-04T01:38:39;10.72;90.11
71175;DHT22;58876;51.994;4.472;2024-02-04T01:41:04;10.78;90.05
71175;DHT22;58876;51.994;4.472;2024-02-04T01:43:29;10.85;89.61
71175;DHT22;58876;51.994;4.472;2024-02-04T01:45:56;10.90;89.36
71175;DHT22;58876;51.994;4.472;2024-02-04T01:48:23;11.11;89.20
71175;DHT22;58876;51.994;4.472;2024-02-04T01:50:50;11.12;88.86
71175;DHT22;58876;51.994;4.472;2024-02-04T01:53:22;11.26;88.33
71175;DHT22;58876;51.994;4.472;2024-02-04T01:55:49;11.35;88.17
71175;DHT22;58876;51.994;4.472;2024-02-04T01:58:17;11.26;87.90
71175;DHT22;58876;51.994;4.472;2024-02-04T02:00:43;11.19;87.78
71175;DHT22;58876;51.994;4.472;2024-02-04T02:03:11;11.07;88.03
71175;DHT22;58876;51.994;4.472;2024-02-04T02:05:39;11.12;87.93
71175;DHT22;58876;51.994;4.472;2024-02-04T02:08:06;11.00;87.74
71175;DHT22;58876;51.994;4.472;2024-02-04T02:10:31;10.90;88.21
71175;DHT22;58876;51.994;4.472;2024-02-04T02:15:32;10.78;88.05
71175;DHT22;58876;51.994;4.472;2024-02-04T02:18:10;10.84;88.17
71175;DHT22;58876;51.994;4.472;2024-02-04T02:26:31;10.72;88.22
71175;DHT22;58876;51.994;4.472;2024-02-04T02:28:57;10.72;87.88
71175;DHT22;58876;51.994;4.472;2024-02-04T02:31:22;10.71;88.07
71175;DHT22;58876;51.994;4.472;2024-02-04T02:33:48;10.70;88.45
71175;DHT22;58876;51.994;4.472;2024-02-04T02:36:19;10.77;88.00
71175;DHT22;58876;51.994;4.472;2024-02-04T02:41:29;10.88;87.71
71175;DHT22;58876;51.994;4.472;2024-02-04T02:43:56;10.72;87.86
71175;DHT22;58876;51.994;4.472;2024-02-04T02:46:23;10.68;88.72
71175;DHT22;58876;51.994;4.472;2024-02-04T02:48:49;10.72;88.50
71175;DHT22;58876;51.994;4.472;2024-02-04T02:51:16;10.72;88.86
71175;DHT22;58876;51.994;4.472;2024-02-04T02:53:41;10.70;88.93
71175;DHT22;58876;51.994;4.472;2024-02-04T02:56:07;10.67;89.10
71175;DHT22;58876;51.994;4.472;2024-02-04T02:58:32;10.77;88.92
71175;DHT22;58876;51.994;4.472;2024-02-04T03:00:58;10.64;89.10
71175;DHT22;58876;51.994;4.472;2024-02-04T03:03:23;10.67;89.02
71175;DHT22;58876;51.994;4.472;2024-02-04T03:05:48;10.74;88.66
71175;DHT22;58876;51.994;4.472;2024-02-04T03:08:14;10.71;88.76
71175;DHT22;58876;51.994;4.472;2024-02-04T03:10:39;10.74;88.71
71175;DHT22;58876;51.994;4.472;2024-02-04T03:13:05;10.80;88.54
71175;DHT22;58876;51.994;4.472;2024-02-04T03:15:31;10.67;88.50
71175;DHT22;58876;51.994;4.472;2024-02-04T03:17:56;10.61;88.70
71175;DHT22;58876;51.994;4.472;2024-02-04T03:20:22;10.53;89.02
71175;DHT22;58876;51.994;4.472;2024-02-04T03:22:48;10.63;88.87
71175;DHT22;58876;51.994;4.472;2024-02-04T03:25:13;10.68;88.84
71175;DHT22;58876;51.994;4.472;2024-02-04T03:27:40;10.68;88.61
71175;DHT22;58876;51.994;4.472;2024-02-04T03:30:05;10.63;88.92
71175;DHT22;58876;51.994;4.472;2024-02-04T03:32:31;10.67;88.62
71175;DHT22;58876;51.994;4.472;2024-02-04T03:35:02;10.75;88.42
71175;DHT22;58876;51.994;4.472;2024-02-04T03:37:28;10.94;88.37
71175;DHT22;58876;51.994;4.472;2024-02-04T03:39:53;10.97;88.06
71175;DHT22;58876;51.994;4.472;2024-02-04T03:42:18;11.00;87.92
71175;DHT22;58876;51.994;4.472;2024-02-04T03:44:46;11.11;87.74
71175;DHT22;58876;51.994;4.472;2024-02-04T03:47:12;11.14;87.35
71175;DHT22;58876;51.994;4.472;2024-02-04T03:49:37;11.09;87.19
71175;DHT22;58876;51.994;4.472;2024-02-04T03:52:03;11.12;86.81
71175;DHT22;58876;51.994;4.472;2024-02-04T03:54:29;11.00;86.77
71175;DHT22;58876;51.994;4.472;2024-02-04T03:56:54;10.81;87.38
71175;DHT22;58876;51.994;4.472;2024-02-04T03:59:19;10.82;87.67
71175;DHT22;58876;51.994;4.472;2024-02-04T04:01:49;10.81;87.71
71175;DHT22;58876;51.994;4.472;2024-02-04T04:04:17;10.88;87.61
71175;DHT22;58876;51.994;4.472;2024-02-04T04:06:43;10.94;87.47
71175;DHT22;58876;51.994;4.472;2024-02-04T04:09:09;10.95;87.25
71175;DHT22;58876;51.994;4.472;2024-02-04T04:11:34;11.04;87.26
71175;DHT22;58876;51.994;4.472;2024-02-04T04:14:00;10.91;87.08
71175;DHT22;58876;51.994;4.472;2024-02-04T04:16:25;10.94;87.26
71175;DHT22;58876;51.994;4.472;2024-02-04T04:18:51;10.94;87.30
71175;DHT22;58876;51.994;4.472;2024-02-04T04:21:16;10.87;87.39
71175;DHT22;58876;51.994;4.472;2024-02-04T04:23:42;10.84;87.71
71175;DHT22;58876;51.994;4.472;2024-02-04T04:26:07;10.81;87.52
71175;DHT22;58876;51.994;4.472;2024-02-04T04:28:33;10.80;87.81
71175;DHT22;58876;51.994;4.472;2024-02-04T04:30:58;10.85;87.77
71175;DHT22;58876;51.994;4.472;2024-02-04T04:33:24;10.81;87.26
71175;DHT22;58876;51.994;4.472;2024-02-04T04:35:49;10.78;87.83
71175;DHT22;58876;51.994;4.472;2024-02-04T04:38:15;10.78;87.75
71175;DHT22;58876;51.994;4.472;2024-02-04T04:40:43;10.85;87.95
71175;DHT22;58876;51.994;4.472;2024-02-04T04:43:09;10.75;87.79
71175;DHT22;58876;51.994;4.472;2024-02-04T04:45:34;10.87;87.88
71175;DHT22;58876;51.994;4.472;2024-02-04T04:48:00;10.77;87.95
71175;DHT22;58876;51.994;4.472;2024-02-04T04:50:25;10.78;87.99
71175;DHT22;58876;51.994;4.472;2024-02-04T04:52:51;10.68;88.37
71175;DHT22;58876;51.994;4.472;2024-02-04T04:55:16;10.54;88.73
71175;DHT22;58876;51.994;4.472;2024-02-04T04:57:42;10.56;88.79
71175;DHT22;58876;51.994;4.472;2024-02-04T05:00:08;10.60;88.47
71175;DHT22;58876;51.994;4.472;2024-02-04T05:02:37;10.47;89.02
71175;DHT22;58876;51.994;4.472;2024-02-04T05:05:03;10.53;88.94
71175;DHT22;58876;51.994;4.472;2024-02-04T05:07:29;10.43;89.14
71175;DHT22;58876;51.994;4.472;2024-02-04T05:09:54;10.49;89.21
71175;DHT22;58876;51.994;4.472;2024-02-04T05:12:20;10.43;89.09
71175;DHT22;58876;51.994;4.472;2024-02-04T05:14:48;10.50;88.98
71175;DHT22;58876;51.994;4.472;2024-02-04T05:17:14;10.43;89.04
71175;DHT22;58876;51.994;4.472;2024-02-04T05:19:43;10.47;89.02
71175;DHT22;58876;51.994;4.472;2024-02-04T05:22:09;10.40;89.14
71175;DHT22;58876;51.994;4.472;2024-02-04T05:24:35;10.34;89.47
71175;DHT22;58876;51.994;4.472;2024-02-04T05:27:00;10.30;89.52
71175;DHT22;58876;51.994;4.472;2024-02-04T05:29:26;10.33;89.45
71175;DHT22;58876;51.994;4.472;2024-02-04T05:31:51;10.34;89.35
71175;DHT22;58876;51.994;4.472;2024-02-04T05:34:17;10.28;89.49
71175;DHT22;58876;51.994;4.472;2024-02-04T05:36:42;10.40;89.55
71175;DHT22;58876;51.994;4.472;2024-02-04T05:39:18;10.29;89.46
71175;DHT22;58876;51.994;4.472;2024-02-04T05:41:43;10.30;89.51
71175;DHT22;58876;51.994;4.472;2024-02-04T05:44:09;10.33;89.66
71175;DHT22;58876;51.994;4.472;2024-02-04T05:46:35;10.30;89.45
71175;DHT22;58876;51.994;4.472;2024-02-04T05:49:01;10.30;89.51
71175;DHT22;58876;51.994;4.472;2024-02-04T05:51:27;10.30;89.31
71175;DHT22;58876;51.994;4.472;2024-02-04T05:53:54;10.30;89.30
71175;DHT22;58876;51.994;4.472;2024-02-04T05:56:21;10.20;89.37
71175;DHT22;58876;51.994;4.472;2024-02-04T05:58:47;10.23;89.48
71175;DHT22;58876;51.994;4.472;2024-02-04T06:01:12;10.26;89.52
71175;DHT22;58876;51.994;4.472;2024-02-04T06:03:38;10.23;89.49
71175;DHT22;58876;51.994;4.472;2024-02-04T06:06:03;10.24;89.76
71175;DHT22;58876;51.994;4.472;2024-02-04T06:08:29;10.33;89.41
71175;DHT22;58876;51.994;4.472;2024-02-04T06:10:55;10.34;89.61
71175;DHT22;58876;51.994;4.472;2024-02-04T06:13:20;10.34;89.54
71175;DHT22;58876;51.994;4.472;2024-02-04T06:15:46;10.39;89.55
71175;DHT22;58876;51.994;4.472;2024-02-04T06:18:12;10.40;89.63
71175;DHT22;58876;51.994;4.472;2024-02-04T06:20:37;10.49;89.57
71175;DHT22;58876;51.994;4.472;2024-02-04T06:23:03;10.53;89.61
71175;DHT22;58876;51.994;4.472;2024-02-04T06:25:28;10.53;89.55
71175;DHT22;58876;51.994;4.472;2024-02-04T06:27:54;10.51;89.54
71175;DHT22;58876;51.994;4.472;2024-02-04T06:30:19;10.54;89.53
71175;DHT22;58876;51.994;4.472;2024-02-04T06:32:50;10.54;89.67
71175;DHT22;58876;51.994;4.472;2024-02-04T06:35:16;10.53;89.65
71175;DHT22;58876;51.994;4.472;2024-02-04T06:37:42;10.59;89.55
71175;DHT22;58876;51.994;4.472;2024-02-04T06:40:10;10.64;89.42
71175;DHT22;58876;51.994;4.472;2024-02-04T06:42:36;10.61;89.27
71175;DHT22;58876;51.994;4.472;2024-02-04T06:45:01;10.59;89.19
71175;DHT22;58876;51.994;4.472;2024-02-04T06:47:27;10.46;89.48
71175;DHT22;58876;51.994;4.472;2024-02-04T06:49:52;10.43;89.86
71175;DHT22;58876;51.994;4.472;2024-02-04T06:52:18;10.42;90.03
71175;DHT22;58876;51.994;4.472;2024-02-04T06:54:44;10.40;90.08
71175;DHT22;58876;51.994;4.472;2024-02-04T06:57:09;10.49;90.08
71175;DHT22;58876;51.994;4.472;2024-02-04T06:59:35;10.60;89.81
71175;DHT22;58876;51.994;4.472;2024-02-04T07:02:00;10.49;89.53
71175;DHT22;58876;51.994;4.472;2024-02-04T07:04:26;10.42;89.81
71175;DHT22;58876;51.994;4.472;2024-02-04T07:06:51;10.43;89.83
71175;DHT22;58876;51.994;4.472;2024-02-04T07:09:17;10.49;89.81
71175;DHT22;58876;51.994;4.472;2024-02-04T07:11:43;10.43;89.51
71175;DHT22;58876;51.994;4.472;2024-02-04T07:14:08;10.23;90.25
71175;DHT22;58876;51.994;4.472;2024-02-04T07:16:34;10.28;90.55
71175;DHT22;58876;51.994;4.472;2024-02-04T07:18:59;10.37;90.63
71175;DHT22;58876;51.994;4.472;2024-02-04T07:21:25;10.50;90.58
71175;DHT22;58876;51.994;4.472;2024-02-04T07:23:50;10.39;90.81
71175;DHT22;58876;51.994;4.472;2024-02-04T07:26:19;10.23;91.19
71175;DHT22;58876;51.994;4.472;2024-02-04T07:28:44;10.23;91.38
71175;DHT22;58876;51.994;4.472;2024-02-04T07:31:10;10.30;91.41
71175;DHT22;58876;51.994;4.472;2024-02-04T07:33:35;10.30;91.33
71175;DHT22;58876;51.994;4.472;2024-02-04T07:36:02;10.24;91.39
71175;DHT22;58876;51.994;4.472;2024-02-04T07:38:27;10.36;91.44
71175;DHT22;58876;51.994;4.472;2024-02-04T07:40:52;10.33;91.18
71175;DHT22;58876;51.994;4.472;2024-02-04T07:43:20;10.40;91.30
71175;DHT22;58876;51.994;4.472;2024-02-04T07:45:49;10.46;91.05
71175;DHT22;58876;51.994;4.472;2024-02-04T07:48:14;10.36;90.83
71175;DHT22;58876;51.994;4.472;2024-02-04T07:50:40;10.32;91.04
71175;DHT22;58876;51.994;4.472;2024-02-04T07:53:05;10.37;91.06
71175;DHT22;58876;51.994;4.472;2024-02-04T07:55:31;10.34;90.96
71175;DHT22;58876;51.994;4.472;2024-02-04T07:57:56;10.39;90.68
71175;DHT22;58876;51.994;4.472;2024-02-04T08:00:22;10.37;90.60
71175;DHT22;58876;51.994;4.472;2024-02-04T08:02:47;10.47;90.52
71175;DHT22;58876;51.994;4.472;2024-02-04T08:05:13;10.50;90.14
71175;DHT22;58876;51.994;4.472;2024-02-04T08:07:38;10.47;90.28
71175;DHT22;58876;51.994;4.472;2024-02-04T08:10:05;10.56;90.08
71175;DHT22;58876;51.994;4.472;2024-02-04T08:12:30;10.54;89.68
71175;DHT22;58876;51.994;4.472;2024-02-04T08:14:56;10.51;89.82
71175;DHT22;58876;51.994;4.472;2024-02-04T08:17:21;10.49;89.69
71175;DHT22;58876;51.994;4.472;2024-02-04T08:19:47;10.43;89.93
71175;DHT22;58876;51.994;4.472;2024-02-04T08:22:12;10.47;89.83
71175;DHT22;58876;51.994;4.472;2024-02-04T08:24:38;10.57;89.61
71175;DHT22;58876;51.994;4.472;2024-02-04T08:27:04;10.57;89.50
71175;DHT22;58876;51.994;4.472;2024-02-04T08:29:29;10.51;89.42
71175;DHT22;58876;51.994;4.472;2024-02-04T08:31:55;10.56;89.42
71175;DHT22;58876;51.994;4.472;2024-02-04T08:34:20;10.59;89.20
71175;DHT22;58876;51.994;4.472;2024-02-04T08:36:49;10.59;89.07
71175;DHT22;58876;51.994;4.472;2024-02-04T08:39:15;10.61;89.04
71175;DHT22;58876;51.994;4.472;2024-02-04T08:41:41;10.65;89.00
71175;DHT22;58876;51.994;4.472;2024-02-04T08:44:06;10.60;88.94
71175;DHT22;58876;51.994;4.472;2024-02-04T08:46:32;10.70;88.81
71175;DHT22;58876;51.994;4.472;2024-02-04T08:48:57;10.64;88.64
71175;DHT22;58876;51.994;4.472;2024-02-04T08:51:23;10.75;88.72
71175;DHT22;58876;51.994;4.472;2024-02-04T08:53:48;10.71;88.64
71175;DHT22;58876;51.994;4.472;2024-02-04T08:56:14;10.65;88.57
71175;DHT22;58876;51.994;4.472;2024-02-04T08:58:39;10.71;88.71
71175;DHT22;58876;51.994;4.472;2024-02-04T09:01:05;10.77;88.61
71175;DHT22;58876;51.994;4.472;2024-02-04T09:03:31;10.75;88.51
71175;DHT22;58876;51.994;4.472;2024-02-04T09:05:58;10.75;88.42
71175;DHT22;58876;51.994;4.472;2024-02-04T09:08:23;10.71;88.51
71175;DHT22;58876;51.994;4.472;2024-02-04T09:10:49;10.81;88.50
71175;DHT22;58876;51.994;4.472;2024-02-04T09:13:14;10.81;88.15
71175;DHT22;58876;51.994;4.472;2024-02-04T09:15:40;10.81;88.15
71175;DHT22;58876;51.994;4.472;2024-02-04T09:18:05;10.84;88.00
71175;DHT22;58876;51.994;4.472;2024-02-04T09:20:31;10.87;87.92
71175;DHT22;58876;51.994;4.472;2024-02-04T09:22:56;10.85;88.09
71175;DHT22;58876;51.994;4.472;2024-02-04T09:25:22;10.91;87.97
71175;DHT22;58876;51.994;4.472;2024-02-04T09:27:47;10.91;88.05
71175;DHT22;58876;51.994;4.472;2024-02-04T09:30:13;10.94;88.15
71175;DHT22;58876;51.994;4.472;2024-02-04T09:32:38;11.05;88.37
71175;DHT22;58876;51.994;4.472;2024-02-04T09:35:04;11.04;89.21
71175;DHT22;58876;51.994;4.472;2024-02-04T09:37:29;11.11;88.97
71175;DHT22;58876;51.994;4.472;2024-02-04T09:39:55;10.88;90.04
71175;DHT22;58876;51.994;4.472;2024-02-04T09:42:23;10.80;90.33
71175;DHT22;58876;51.994;4.472;2024-02-04T09:44:50;10.77;90.38
71175;DHT22;58876;51.994;4.472;2024-02-04T09:47:18;10.54;90.85
71175;DHT22;58876;51.994;4.472;2024-02-04T09:49:44;10.56;91.00
71175;DHT22;58876;51.994;4.472;2024-02-04T09:52:13;10.61;91.12
71175;DHT22;58876;51.994;4.472;2024-02-04T09:54:49;10.46;91.25
71175;DHT22;58876;51.994;4.472;2024-02-04T09:57:16;10.40;91.80
71175;DHT22;58876;51.994;4.472;2024-02-04T09:59:44;10.51;91.58
71175;DHT22;58876;51.994;4.472;2024-02-04T10:02:10;10.44;91.66
71175;DHT22;58876;51.994;4.472;2024-02-04T10:04:35;10.39;91.79
71175;DHT22;58876;51.994;4.472;2024-02-04T10:07:02;10.43;92.04
71175;DHT22;58876;51.994;4.472;2024-02-04T10:09:28;10.42;91.42
71175;DHT22;58876;51.994;4.472;2024-02-04T10:11:54;10.54;91.50
71175;DHT22;58876;51.994;4.472;2024-02-04T10:14:26;10.56;91.17
71175;DHT22;58876;51.994;4.472;2024-02-04T10:16:52;10.65;90.60
71175;DHT22;58876;51.994;4.472;2024-02-04T10:19:18;10.65;90.24
71175;DHT22;58876;51.994;4.472;2024-02-04T10:21:43;10.68;90.25
71175;DHT22;58876;51.994;4.472;2024-02-04T10:24:09;10.75;89.96
71175;DHT22;58876;51.994;4.472;2024-02-04T10:26:35;10.85;89.63
71175;DHT22;58876;51.994;4.472;2024-02-04T10:29:03;10.88;89.34
71175;DHT22;58876;51.994;4.472;2024-02-04T10:31:28;10.85;89.10
71175;DHT22;58876;51.994;4.472;2024-02-04T10:33:55;10.90;88.95
71175;DHT22;58876;51.994;4.472;2024-02-04T10:36:22;10.94;88.87
71175;DHT22;58876;51.994;4.472;2024-02-04T10:38:48;10.92;88.61
71175;DHT22;58876;51.994;4.472;2024-02-04T10:41:17;10.97;88.62
71175;DHT22;58876;51.994;4.472;2024-02-04T10:43:44;11.00;88.49
71175;DHT22;58876;51.994;4.472;2024-02-04T10:46:13;10.98;88.39
71175;DHT22;58876;51.994;4.472;2024-02-04T10:48:57;11.00;88.27
71175;DHT22;58876;51.994;4.472;2024-02-04T10:51:26;10.95;88.27
71175;DHT22;58876;51.994;4.472;2024-02-04T10:53:54;11.08;88.05
71175;DHT22;58876;51.994;4.472;2024-02-04T10:56:37;11.08;87.83
71175;DHT22;58876;51.994;4.472;2024-02-04T10:59:03;11.08;87.83
71175;DHT22;58876;51.994;4.472;2024-02-04T11:01:29;11.12;87.80
71175;DHT22;58876;51.994;4.472;2024-02-04T11:03:56;11.08;87.49
71175;DHT22;58876;51.994;4.472;2024-02-04T11:06:23;11.09;87.59
71175;DHT22;58876;51.994;4.472;2024-02-04T11:08:53;11.08;87.52
71175;DHT22;58876;51.994;4.472;2024-02-04T11:11:20;11.18;87.17
71175;DHT22;58876;51.994;4.472;2024-02-04T11:13:53;11.05;87.51
71175;DHT22;58876;51.994;4.472;2024-02-04T11:27:33;11.12;86.79
71175;DHT22;58876;51.994;4.472;2024-02-04T11:29:59;11.01;87.20
71175;DHT22;58876;51.994;4.472;2024-02-04T11:32:24;11.05;87.22
71175;DHT22;58876;51.994;4.472;2024-02-04T11:34:53;11.18;86.96
71175;DHT22;58876;51.994;4.472;2024-02-04T11:37:20;11.28;86.95
71175;DHT22;58876;51.994;4.472;2024-02-04T11:39:57;11.22;86.80
71175;DHT22;58876;51.994;4.472;2024-02-04T11:42:23;11.09;87.27
71175;DHT22;58876;51.994;4.472;2024-02-04T11:44:50;11.16;87.12
71175;DHT22;58876;51.994;4.472;2024-02-04T11:47:27;11.25;86.71
71175;DHT22;58876;51.994;4.472;2024-02-04T11:49:54;11.23;86.81
71175;DHT22;58876;51.994;4.472;2024-02-04T11:52:19;11.26;86.89
71175;DHT22;58876;51.994;4.472;2024-02-04T11:54:49;11.33;86.50
71175;DHT22;58876;51.994;4.472;2024-02-04T11:57:15;11.33;86.41
71175;DHT22;58876;51.994;4.472;2024-02-04T11:59:42;11.21;86.64
71175;DHT22;58876;51.994;4.472;2024-02-04T12:02:08;11.19;86.69
71175;DHT22;58876;51.994;4.472;2024-02-04T12:04:35;11.19;86.87
71175;DHT22;58876;51.994;4.472;2024-02-04T12:07:02;11.12;87.15
71175;DHT22;58876;51.994;4.472;2024-02-04T12:09:28;11.11;87.08
71175;DHT22;58876;51.994;4.472;2024-02-04T12:11:54;11.14;87.23
71175;DHT22;58876;51.994;4.472;2024-02-04T12:14:19;11.18;87.00
71175;DHT22;58876;51.994;4.472;2024-02-04T12:16:46;11.18;87.30
71175;DHT22;58876;51.994;4.472;2024-02-04T12:19:11;11.15;87.12
71175;DHT22;58876;51.994;4.472;2024-02-04T12:21:37;11.15;86.99
71175;DHT22;58876;51.994;4.472;2024-02-04T12:24:03;11.19;87.26
71175;DHT22;58876;51.994;4.472;2024-02-04T12:26:30;11.26;87.08
71175;DHT22;58876;51.994;4.472;2024-02-04T12:28:56;11.31;86.64
71175;DHT22;58876;51.994;4.472;2024-02-04T12:31:25;11.22;86.59
71175;DHT22;58876;51.994;4.472;2024-02-04T12:33:55;11.16;87.00
71175;DHT22;58876;51.994;4.472;2024-02-04T12:36:29;11.25;86.80
71175;DHT22;58876;51.994;4.472;2024-02-04T12:38:56;11.18;86.93
71175;DHT22;58876;51.994;4.472;2024-02-04T12:41:22;11.00;87.22
71175;DHT22;58876;51.994;4.472;2024-02-04T12:43:55;11.09;87.25
71175;DHT22;58876;51.994;4.472;2024-02-04T12:46:22;11.11;87.23
71175;DHT22;58876;51.994;4.472;2024-02-04T12:48:52;11.16;87.22
71175;DHT22;58876;51.994;4.472;2024-02-04T12:51:30;11.14;86.95
71175;DHT22;58876;51.994;4.472;2024-02-04T12:54:09;11.12;87.03
71175;DHT22;58876;51.994;4.472;2024-02-04T12:56:48;11.23;87.23
71175;DHT22;58876;51.994;4.472;2024-02-04T12:59:31;11.29;86.79
71175;DHT22;58876;51.994;4.472;2024-02-04T13:02:23;11.21;86.87
71175;DHT22;58876;51.994;4.472;2024-02-04T13:04:48;11.28;86.67
71175;DHT22;58876;51.994;4.472;2024-02-04T13:07:18;11.31;86.77
71175;DHT22;58876;51.994;4.472;2024-02-04T13:09:44;11.40;86.66
71175;DHT22;58876;51.994;4.472;2024-02-04T13:12:17;11.42;86.43
71175;DHT22;58876;51.994;4.472;2024-02-04T13:14:43;11.35;86.36
71175;DHT22;58876;51.994;4.472;2024-02-04T13:17:09;11.31;86.45
71175;DHT22;58876;51.994;4.472;2024-02-04T13:19:36;11.42;86.33
71175;DHT22;58876;51.994;4.472;2024-02-04T13:22:03;11.44;86.08
71175;DHT22;58876;51.994;4.472;2024-02-04T13:24:30;11.40;86.16
71175;DHT22;58876;51.994;4.472;2024-02-04T13:26:56;11.44;86.27
71175;DHT22;58876;51.994;4.472;2024-02-04T13:29:22;11.47;86.19
71175;DHT22;58876;51.994;4.472;2024-02-04T13:31:48;11.49;85.99
71175;DHT22;58876;51.994;4.472;2024-02-04T13:34:13;11.46;85.83
71175;DHT22;58876;51.994;4.472;2024-02-04T13:36:39;11.52;86.05
71175;DHT22;58876;51.994;4.472;2024-02-04T13:39:05;11.44;86.09
71175;DHT22;58876;51.994;4.472;2024-02-04T13:41:31;11.50;86.06
71175;DHT22;58876;51.994;4.472;2024-02-04T13:43:57;11.49;85.89
71175;DHT22;58876;51.994;4.472;2024-02-04T13:46:23;11.47;85.84
71175;DHT22;58876;51.994;4.472;2024-02-04T13:48:49;11.63;85.85
71175;DHT22;58876;51.994;4.472;2024-02-04T13:51:14;11.56;85.86
71175;DHT22;58876;51.994;4.472;2024-02-04T13:53:43;11.40;86.00
71175;DHT22;58876;51.994;4.472;2024-02-04T13:56:08;11.39;86.22
71175;DHT22;58876;51.994;4.472;2024-02-04T13:58:34;11.49;86.34
71175;DHT22;58876;51.994;4.472;2024-02-04T14:00:59;11.35;86.47
71175;DHT22;58876;51.994;4.472;2024-02-04T14:03:25;11.38;86.50
71175;DHT22;58876;51.994;4.472;2024-02-04T14:05:51;11.38;86.33
71175;DHT22;58876;51.994;4.472;2024-02-04T14:08:17;11.43;86.23
71175;DHT22;58876;51.994;4.472;2024-02-04T14:10:42;11.39;86.32
71175;DHT22;58876;51.994;4.472;2024-02-04T14:13:07;11.36;86.48
71175;DHT22;58876;51.994;4.472;2024-02-04T14:15:33;11.19;86.85
71175;DHT22;58876;51.994;4.472;2024-02-04T14:18:00;11.23;86.75
71175;DHT22;58876;51.994;4.472;2024-02-04T14:20:25;11.28;86.59
71175;DHT22;58876;51.994;4.472;2024-02-04T14:22:52;11.21;86.86
71175;DHT22;58876;51.994;4.472;2024-02-04T14:25:17;11.29;86.86
71175;DHT22;58876;51.994;4.472;2024-02-04T14:27:43;11.21;86.74
71175;DHT22;58876;51.994;4.472;2024-02-04T14:30:09;11.16;86.90
71175;DHT22;58876;51.994;4.472;2024-02-04T14:32:34;11.19;86.98
71175;DHT22;58876;51.994;4.472;2024-02-04T14:35:00;11.15;87.19
71175;DHT22;58876;51.994;4.472;2024-02-04T14:37:25;11.16;87.05
71175;DHT22;58876;51.994;4.472;2024-02-04T14:39:51;11.28;86.85
71175;DHT22;58876;51.994;4.472;2024-02-04T14:42:19;11.22;87.10
71175;DHT22;58876;51.994;4.472;2024-02-04T14:44:44;11.21;87.14
71175;DHT22;58876;51.994;4.472;2024-02-04T14:47:10;11.28;86.91
71175;DHT22;58876;51.994;4.472;2024-02-04T14:49:36;11.22;86.79
71175;DHT22;58876;51.994;4.472;2024-02-04T14:52:02;11.33;86.43
71175;DHT22;58876;51.994;4.472;2024-02-04T14:54:27;11.31;86.28
71175;DHT22;58876;51.994;4.472;2024-02-04T14:56:53;11.31;86.29
71175;DHT22;58876;51.994;4.472;2024-02-04T14:59:19;11.29;86.21
71175;DHT22;58876;51.994;4.472;2024-02-04T15:01:45;11.33;86.29
71175;DHT22;58876;51.994;4.472;2024-02-04T15:04:11;11.32;86.05
71175;DHT22;58876;51.994;4.472;2024-02-04T15:06:39;11.36;85.77
71175;DHT22;58876;51.994;4.472;2024-02-04T15:09:05;11.44;85.73
71175;DHT22;58876;51.994;4.472;2024-02-04T15:11:30;11.44;85.72
71175;DHT22;58876;51.994;4.472;2024-02-04T15:13:58;11.40;85.82
71175;DHT22;58876;51.994;4.472;2024-02-04T15:16:24;11.42;86.16
71175;DHT22;58876;51.994;4.472;2024-02-04T15:18:50;11.47;85.70
71175;DHT22;58876;51.994;4.472;2024-02-04T15:21:18;11.43;85.72
71175;DHT22;58876;51.994;4.472;2024-02-04T15:23:44;11.49;85.58
71175;DHT22;58876;51.994;4.472;2024-02-04T15:26:11;11.53;85.26
71175;DHT22;58876;51.994;4.472;2024-02-04T15:28:38;11.56;85.45
71175;DHT22;58876;51.994;4.472;2024-02-04T15:31:04;11.33;85.66
71175;DHT22;58876;51.994;4.472;2024-02-04T15:33:30;11.38;85.87
71175;DHT22;58876;51.994;4.472;2024-02-04T15:35:56;11.42;86.07
71175;DHT22;58876;51.994;4.472;2024-02-04T15:38:22;11.42;85.92
71175;DHT22;58876;51.994;4.472;2024-02-04T15:40:48;11.40;85.87
71175;DHT22;58876;51.994;4.472;2024-02-04T15:43:14;11.42;85.95
71175;DHT22;58876;51.994;4.472;2024-02-04T15:45:39;11.42;85.73
71175;DHT22;58876;51.994;4.472;2024-02-04T15:48:05;11.21;86.26